createdAt,value
2018-11-21T00:01:44.813Z,16.97
2018-11-21T00:04:26.389Z,16.97
2018-11-21T00:07:07.534Z,15.68
2018-11-21T00:09:49.388Z,13.05
2018-11-21T00:12:30.970Z,13.95
2018-11-21T00:15:12.673Z,13.22
2018-11-21T00:17:54.563Z,11.75
2018-11-21T00:20:36.303Z,11.65
2018-11-21T00:23:17.914Z,13.80
2018-11-21T00:25:59.058Z,15.88
2018-11-21T00:28:40.912Z,15.70
2018-11-21T00:31:22.753Z,16.02
2018-11-21T00:34:04.431Z,15.90
2018-11-21T00:36:45.855Z,15.75
2018-11-21T00:39:15.134Z,16.05
2018-11-21T00:42:03.697Z,15.70
2018-11-21T00:44:45.006Z,16.52
2018-11-21T00:47:26.677Z,17.25
2018-11-21T00:50:08.569Z,16.52
2018-11-21T00:52:49.715Z,16.48
2018-11-21T00:55:31.087Z,18.10
2018-11-21T00:58:12.796Z,17.37
2018-11-21T01:00:54.573Z,16.90
2018-11-21T01:03:36.395Z,17.00
2018-11-21T01:06:17.764Z,17.77
2018-11-21T01:08:59.219Z,15.45
2018-11-21T01:11:40.666Z,17.45
2018-11-21T01:14:21.713Z,17.75
2018-11-21T01:17:03.816Z,14.98
2018-11-21T01:19:45.412Z,14.80
2018-11-21T01:22:26.745Z,16.37
2018-11-21T01:25:08.257Z,15.95
2018-11-21T01:27:49.776Z,15.48
2018-11-21T01:30:30.969Z,15.53
2018-11-21T01:33:13.180Z,17.35
2018-11-21T01:35:55.048Z,15.13
2018-11-21T01:38:36.685Z,15.20
2018-11-21T01:41:18.620Z,15.72
2018-11-21T01:43:59.911Z,16.60
2018-11-21T01:46:41.273Z,15.15
2018-11-21T01:49:22.629Z,14.15
2018-11-21T01:52:04.304Z,14.95
2018-11-21T01:54:46.120Z,16.85
2018-11-21T01:57:27.606Z,17.35
2018-11-21T02:00:09.871Z,16.17
2018-11-21T02:02:51.095Z,15.68
2018-11-21T02:05:32.492Z,15.03
2018-11-21T02:08:13.936Z,14.45
2018-11-21T02:10:55.397Z,14.10
2018-11-21T02:13:36.761Z,14.95
2018-11-21T02:16:17.894Z,16.45
2018-11-21T02:18:59.234Z,14.28
2018-11-21T02:21:40.666Z,14.53
2018-11-21T02:24:22.401Z,15.50
2018-11-21T02:27:03.968Z,15.60
2018-11-21T02:29:45.852Z,15.45
2018-11-21T02:32:27.104Z,15.20
2018-11-21T02:35:08.990Z,14.33
2018-11-21T02:37:50.339Z,15.60
2018-11-21T02:40:30.713Z,13.85
2018-11-21T02:43:19.262Z,15.18
2018-11-21T02:46:01.186Z,14.80
2018-11-21T02:48:42.684Z,13.40
2018-11-21T02:51:24.048Z,14.45
2018-11-21T02:54:06.090Z,15.78
2018-11-21T02:56:47.641Z,13.80
2018-11-21T02:59:29.271Z,13.95
2018-11-21T03:02:11.427Z,13.00
2018-11-21T03:04:52.905Z,15.38
2018-11-21T03:07:33.952Z,13.65
2018-11-21T03:10:15.290Z,15.25
2018-11-21T03:12:57.230Z,14.65
2018-11-21T03:15:38.345Z,15.18
2018-11-21T03:18:19.749Z,14.55
2018-11-21T03:21:01.336Z,15.05
2018-11-21T03:23:42.562Z,16.17
2018-11-21T03:26:23.744Z,14.85
2018-11-21T03:29:03.430Z,14.13
2018-11-21T03:31:52.013Z,15.28
2018-11-21T03:34:33.909Z,15.70
2018-11-21T03:37:13.500Z,15.10
2018-11-21T03:40:02.063Z,14.00
2018-11-21T03:42:43.879Z,17.30
2018-11-21T03:45:25.313Z,16.40
2018-11-21T03:48:07.229Z,15.30
2018-11-21T03:50:49.127Z,15.75
2018-11-21T03:53:30.671Z,15.50
2018-11-21T03:56:12.681Z,15.30
2018-11-21T03:58:54.467Z,17.12
2018-11-21T04:01:36.109Z,15.63
2018-11-21T04:04:17.674Z,15.98
2018-11-21T04:06:58.775Z,15.78
2018-11-21T04:09:39.929Z,17.82
2018-11-21T04:12:21.614Z,16.25
2018-11-21T04:15:02.852Z,16.00
2018-11-21T04:17:44.519Z,16.48
2018-11-21T04:20:26.281Z,15.05
2018-11-21T04:23:07.772Z,15.72
2018-11-21T04:25:49.324Z,15.25
2018-11-21T04:28:31.062Z,15.45
2018-11-21T04:31:12.754Z,15.25
2018-11-21T04:33:56.893Z,23.25
2018-11-21T04:36:36.233Z,40.33
2018-11-21T04:39:17.434Z,15.53
2018-11-21T04:41:58.535Z,14.78
2018-11-21T04:44:40.176Z,13.58
2018-11-21T04:47:21.794Z,16.62
2018-11-21T04:50:03.765Z,16.05
2018-11-21T04:52:45.022Z,14.58
2018-11-21T04:55:26.400Z,16.60
2018-11-21T04:58:07.936Z,14.75
2018-11-21T05:00:49.609Z,14.60
2018-11-21T05:03:30.725Z,15.88
2018-11-21T05:06:12.183Z,16.15
2018-11-21T05:08:51.897Z,16.70
2018-11-21T05:11:40.580Z,15.65
2018-11-21T05:14:21.625Z,15.25
2018-11-21T05:17:03.434Z,16.23
2018-11-21T05:19:45.146Z,16.17
2018-11-21T05:22:26.507Z,15.20
2018-11-21T05:25:09.209Z,16.37
2018-11-21T05:27:50.704Z,15.93
2018-11-21T05:30:32.264Z,16.57
2018-11-21T05:33:13.714Z,15.63
2018-11-21T05:35:53.373Z,16.20
2018-11-21T05:38:41.987Z,17.37
2018-11-21T05:41:23.261Z,16.20
2018-11-21T05:44:04.813Z,15.65
2018-11-21T05:46:46.473Z,15.55
2018-11-21T05:49:27.822Z,16.65
2018-11-21T05:52:09.706Z,13.60
2018-11-21T05:54:51.210Z,13.70
2018-11-21T05:57:30.853Z,16.30
2018-11-21T06:00:19.423Z,15.83
2018-11-21T06:03:00.778Z,16.27
2018-11-21T06:05:41.933Z,15.93
2018-11-21T06:08:23.450Z,14.63
2018-11-21T06:11:05.033Z,14.60
2018-11-21T06:13:46.549Z,15.00
2018-11-21T06:16:28.164Z,13.95
2018-11-21T06:19:09.209Z,13.95
2018-11-21T06:21:51.023Z,15.72
2018-11-21T06:24:32.435Z,14.78
2018-11-21T06:27:14.370Z,15.08
2018-11-21T06:29:55.536Z,16.32
2018-11-21T06:32:37.131Z,15.03
2018-11-21T06:35:18.361Z,13.65
2018-11-21T06:37:59.417Z,15.72
2018-11-21T06:40:40.814Z,15.25
2018-11-21T06:43:21.857Z,14.07
2018-11-21T06:46:03.205Z,13.83
2018-11-21T06:48:44.705Z,15.20
2018-11-21T06:51:26.466Z,13.60
2018-11-21T06:54:08.994Z,16.60
2018-11-21T06:56:50.811Z,14.90
2018-11-21T06:59:32.475Z,15.80
2018-11-21T07:02:13.641Z,18.92
2018-11-21T07:04:53.322Z,17.55
2018-11-21T07:07:43.760Z,18.23
2018-11-21T07:10:23.022Z,15.30
2018-11-21T07:13:07.684Z,19.00
2018-11-21T07:15:45.417Z,16.17
2018-11-21T07:18:28.024Z,15.30
2018-11-21T07:21:09.975Z,16.95
2018-11-21T07:23:51.560Z,15.75
2018-11-21T07:26:32.892Z,16.20
2018-11-21T07:29:14.326Z,16.62
2018-11-21T07:31:55.923Z,15.80
2018-11-21T07:34:37.262Z,16.27
2018-11-21T07:37:19.301Z,16.35
2018-11-21T07:40:01.094Z,17.32
2018-11-21T07:42:42.802Z,16.67
2018-11-21T07:45:24.311Z,16.40
2018-11-21T07:48:05.448Z,17.70
2018-11-21T07:50:46.556Z,17.60
2018-11-21T07:53:28.367Z,18.80
2018-11-21T07:56:09.448Z,16.60
2018-11-21T07:58:51.077Z,19.50
2018-11-21T08:01:36.982Z,19.82
2018-11-21T08:04:23.176Z,16.77
2018-11-21T08:07:24.288Z,16.82
2018-11-21T08:10:18.033Z,17.05
2018-11-21T08:13:18.219Z,16.27
2018-11-21T08:16:18.588Z,14.10
2018-11-21T08:19:18.809Z,17.40
2018-11-21T08:22:13.020Z,17.45
2018-11-21T08:25:19.604Z,18.37
2018-11-21T08:28:26.672Z,16.80
2018-11-21T08:31:08.104Z,19.00
2018-11-21T08:33:50.092Z,17.42
2018-11-21T08:36:31.592Z,19.20
2018-11-21T08:39:12.895Z,18.85
2018-11-21T08:41:53.959Z,17.67
2018-11-21T08:44:35.903Z,18.23
2018-11-21T08:47:16.950Z,20.20
2018-11-21T08:49:58.734Z,21.60
2018-11-21T08:52:39.893Z,20.92
2018-11-21T08:55:21.811Z,21.75
2018-11-21T08:58:03.541Z,21.55
2018-11-21T09:00:46.033Z,21.05
2018-11-21T09:03:27.432Z,22.42
2018-11-21T09:06:08.580Z,20.75
2018-11-21T09:08:50.182Z,21.35
2018-11-21T09:11:31.906Z,21.68
2018-11-21T09:14:13.792Z,23.07
2018-11-21T09:16:55.275Z,22.93
2018-11-21T09:19:36.587Z,21.90
2018-11-21T09:22:17.757Z,22.20
2018-11-21T09:24:59.094Z,23.47
2018-11-21T09:27:40.807Z,21.48
2018-11-21T09:30:22.731Z,22.87
2018-11-21T09:35:45.421Z,20.50
2018-11-21T09:38:26.609Z,19.60
2018-11-21T09:41:08.202Z,20.72
2018-11-21T09:43:49.762Z,20.37
2018-11-21T09:46:31.105Z,20.85
2018-11-21T09:49:12.292Z,19.85
2018-11-21T09:51:53.390Z,19.65
2018-11-21T09:54:34.883Z,21.57
2018-11-21T09:57:16.771Z,20.17
2018-11-21T09:59:57.981Z,20.85
2018-11-21T10:02:39.473Z,21.07
2018-11-21T10:05:20.887Z,21.12
2018-11-21T10:08:02.971Z,19.42
2018-11-21T10:10:44.805Z,21.42
2018-11-21T10:13:26.053Z,19.75
2018-11-21T10:16:07.944Z,20.27
2018-11-21T10:18:51.519Z,21.20
2018-11-21T10:21:33.981Z,20.20
2018-11-21T10:24:15.354Z,18.65
2018-11-21T10:26:57.157Z,19.32
2018-11-21T10:29:38.903Z,18.82
2018-11-21T10:32:20.743Z,17.60
2018-11-21T10:35:02.260Z,17.60
2018-11-21T10:37:43.872Z,17.73
2018-11-21T10:40:25.514Z,19.20
2018-11-21T10:43:06.630Z,17.45
2018-11-21T10:45:48.598Z,18.05
2018-11-21T10:48:30.421Z,17.52
2018-11-21T10:51:12.212Z,18.67
2018-11-21T10:53:54.037Z,17.92
2018-11-21T10:56:35.675Z,19.05
2018-11-21T10:59:17.108Z,23.15
2018-11-21T11:02:18.026Z,20.62
2018-11-21T11:08:20.606Z,19.12
2018-11-21T11:11:16.321Z,21.90
2018-11-21T11:14:16.576Z,21.37
2018-11-21T11:17:18.017Z,21.17
2018-11-21T11:20:18.603Z,20.92
2018-11-21T11:23:18.735Z,22.60
2018-11-21T11:26:19.068Z,20.48
2018-11-21T11:29:19.217Z,22.22
2018-11-21T11:32:19.751Z,20.75
2018-11-21T11:35:19.958Z,20.37
2018-11-21T11:38:20.251Z,23.83
2018-11-21T11:41:21.236Z,20.62
2018-11-21T11:44:21.388Z,20.30
2018-11-21T11:47:29.059Z,20.32
2018-11-21T11:50:29.790Z,24.18
2018-11-21T11:53:30.187Z,22.02
2018-11-21T11:56:36.369Z,20.68
2018-11-21T11:59:43.383Z,21.48
2018-11-21T12:02:44.159Z,23.05
2018-11-21T12:08:59.165Z,20.60
2018-11-21T12:12:04.759Z,21.23
2018-11-21T12:14:48.559Z,22.75
2018-11-21T12:17:35.477Z,19.80
2018-11-21T12:20:33.632Z,20.80
2018-11-21T12:23:15.822Z,19.40
2018-11-21T12:26:12.282Z,19.05
2018-11-21T12:28:56.232Z,18.65
2018-11-21T12:31:43.353Z,19.48
2018-11-21T12:34:30.990Z,18.40
2018-11-21T12:37:28.378Z,18.80
2018-11-21T12:40:16.721Z,19.00
2018-11-21T12:43:03.740Z,18.82
2018-11-21T12:45:52.100Z,17.73
2018-11-21T12:48:55.367Z,17.10
2018-11-21T12:51:40.828Z,18.32
2018-11-21T12:54:34.880Z,18.65
2018-11-21T12:57:14.159Z,16.12
2018-11-21T13:00:11.530Z,17.48
2018-11-21T13:02:56.283Z,18.70
2018-11-21T13:05:45.440Z,17.30
2018-11-21T13:08:33.910Z,18.42
2018-11-21T13:11:25.050Z,17.23
2018-11-21T13:14:33.815Z,18.48
2018-11-21T13:17:20.526Z,16.50
2018-11-21T13:20:20.841Z,17.80
2018-11-21T13:23:12.885Z,17.15
2018-11-21T13:25:59.980Z,16.45
2018-11-21T13:28:57.424Z,17.05
2018-11-21T13:31:44.332Z,15.58
2018-11-21T13:34:31.474Z,16.10
2018-11-21T13:37:18.729Z,18.07
2018-11-21T13:40:13.245Z,18.23
2018-11-21T13:43:00.334Z,18.90
2018-11-21T13:46:06.735Z,18.02
2018-11-21T13:48:55.571Z,16.42
2018-11-21T13:51:48.224Z,17.42
2018-11-21T13:54:42.264Z,17.65
2018-11-21T13:57:11.522Z,18.80
2018-11-21T13:59:40.769Z,18.67
2018-11-21T14:02:10.040Z,17.02
2018-11-21T14:04:39.289Z,16.10
2018-11-21T14:07:09.044Z,17.65
2018-11-21T14:09:38.414Z,18.05
2018-11-21T14:12:07.647Z,17.98
2018-11-21T14:14:36.911Z,16.60
2018-11-21T14:17:06.534Z,17.20
2018-11-21T14:19:35.832Z,15.88
2018-11-21T14:22:05.217Z,16.05
2018-11-21T14:24:34.477Z,16.10
2018-11-21T14:27:03.696Z,17.12
2018-11-21T14:29:32.930Z,16.17
2018-11-21T14:32:02.178Z,15.90
2018-11-21T14:34:31.406Z,17.55
2018-11-21T14:37:00.654Z,16.37
2018-11-21T14:39:29.880Z,18.67
2018-11-21T14:41:59.132Z,17.48
2018-11-21T14:44:28.369Z,16.60
2018-11-21T14:46:58.435Z,15.60
2018-11-21T14:49:27.675Z,17.32
2018-11-21T14:51:56.932Z,16.25
2018-11-21T14:54:26.198Z,17.37
2018-11-21T14:56:55.490Z,16.65
2018-11-21T14:59:24.732Z,17.48
2018-11-21T15:01:53.974Z,15.88
2018-11-21T15:04:23.177Z,14.35
2018-11-21T15:06:52.468Z,16.48
2018-11-21T15:09:21.700Z,15.80
2018-11-21T15:11:50.989Z,16.45
2018-11-21T15:14:20.240Z,17.50
2018-11-21T15:16:49.561Z,17.45
2018-11-21T15:19:18.832Z,18.48
2018-11-21T15:21:48.119Z,17.52
2018-11-21T15:24:17.368Z,17.50
2018-11-21T15:26:46.636Z,17.40
2018-11-21T15:29:15.909Z,17.90
2018-11-21T15:31:45.172Z,18.80
2018-11-21T15:34:14.440Z,18.15
2018-11-21T15:36:43.718Z,18.00
2018-11-21T15:39:13.712Z,17.73
2018-11-21T15:41:42.356Z,17.32
2018-11-21T15:44:11.616Z,16.87
2018-11-21T15:46:45.693Z,19.25
2018-11-21T15:49:10.211Z,18.17
2018-11-21T15:51:40.013Z,17.73
2018-11-21T15:54:09.645Z,18.57
2018-11-21T15:56:39.141Z,18.10
2018-11-21T15:59:08.474Z,17.40
2018-11-21T16:01:37.676Z,17.32
2018-11-21T16:04:07.139Z,16.48
2018-11-21T16:06:36.452Z,17.62
2018-11-21T16:09:09.027Z,19.37
2018-11-21T16:11:38.284Z,16.12
2018-11-21T16:14:07.612Z,17.73
2018-11-21T16:16:36.904Z,16.45
2018-11-21T16:19:06.180Z,17.17
2018-11-21T16:21:35.438Z,16.02
2018-11-21T16:24:04.697Z,17.87
2018-11-21T16:26:33.954Z,15.60
2018-11-21T16:29:03.241Z,16.70
2018-11-21T16:31:32.526Z,17.20
2018-11-21T16:34:01.780Z,16.23
2018-11-21T16:36:31.028Z,17.20
2018-11-21T16:39:00.331Z,16.35
2018-11-21T16:41:29.647Z,15.25
2018-11-21T16:43:58.929Z,15.32
2018-11-21T16:46:28.160Z,15.68
2018-11-21T16:48:57.424Z,17.17
2018-11-21T16:51:26.661Z,17.07
2018-11-21T16:53:55.926Z,16.35
2018-11-21T16:56:25.185Z,16.17
2018-11-21T16:58:54.442Z,14.73
2018-11-21T17:01:23.698Z,14.78
2018-11-21T17:03:53.087Z,16.60
2018-11-21T17:06:22.329Z,15.80
2018-11-21T17:08:51.596Z,13.75
2018-11-21T17:11:20.877Z,15.25
2018-11-21T17:13:50.158Z,15.00
2018-11-21T17:16:19.426Z,16.00
2018-11-21T17:18:48.720Z,15.55
2018-11-21T17:21:17.945Z,14.10
2018-11-21T17:23:47.225Z,14.80
2018-11-21T17:26:16.491Z,14.50
2018-11-21T17:28:45.743Z,15.03
2018-11-21T17:31:15.034Z,14.18
2018-11-21T17:33:44.322Z,15.55
2018-11-21T17:36:13.569Z,15.38
2018-11-21T17:38:42.800Z,15.30
2018-11-21T17:41:12.074Z,14.53
2018-11-21T17:43:41.325Z,15.00
2018-11-21T17:46:10.661Z,14.80
2018-11-21T17:48:39.881Z,13.83
2018-11-21T17:51:09.185Z,14.58
2018-11-21T17:53:38.421Z,15.48
2018-11-21T17:56:07.753Z,15.70
2018-11-21T17:58:37.065Z,16.15
2018-11-21T18:01:06.492Z,14.03
2018-11-21T18:03:35.739Z,15.88
2018-11-21T18:06:05.083Z,15.50
2018-11-21T18:08:34.371Z,15.13
2018-11-21T18:11:03.615Z,15.30
2018-11-21T18:13:32.871Z,13.55
2018-11-21T18:16:02.155Z,15.20
2018-11-21T18:18:31.432Z,15.05
2018-11-21T18:21:00.675Z,16.67
2018-11-21T18:23:29.926Z,14.18
2018-11-21T18:25:59.185Z,14.95
2018-11-21T18:28:28.481Z,16.17
2018-11-21T18:30:57.707Z,14.98
2018-11-21T18:33:26.978Z,15.45
2018-11-21T18:35:56.259Z,15.28
2018-11-21T18:38:25.583Z,16.17
2018-11-21T18:40:54.877Z,15.15
2018-11-21T18:43:24.198Z,17.25
2018-11-21T18:45:53.617Z,16.10
2018-11-21T18:48:22.912Z,14.07
2018-11-21T18:50:52.142Z,15.40
2018-11-21T18:53:21.740Z,14.73
2018-11-21T18:55:57.589Z,14.18
2018-11-21T18:58:51.409Z,16.97
2018-11-21T19:01:20.680Z,16.60
2018-11-21T19:03:50.039Z,16.60
2018-11-21T19:06:19.304Z,15.68
2018-11-21T19:08:48.580Z,14.20
2018-11-21T19:11:17.828Z,13.35
2018-11-21T19:13:47.077Z,14.30
2018-11-21T19:16:16.362Z,14.40
2018-11-21T19:18:45.617Z,14.18
2018-11-21T19:21:14.913Z,14.68
2018-11-21T19:23:44.171Z,13.58
2018-11-21T19:26:13.432Z,14.13
2018-11-21T19:28:42.633Z,13.70
2018-11-21T19:31:11.913Z,13.53
2018-11-21T19:33:41.247Z,12.95
2018-11-21T19:36:13.226Z,13.90
2018-11-21T19:38:39.901Z,14.95
2018-11-21T19:41:09.171Z,16.12
2018-11-21T19:43:38.465Z,12.65
2018-11-21T19:46:07.776Z,15.63
2018-11-21T19:48:37.108Z,13.48
2018-11-21T19:51:07.411Z,13.75
2018-11-21T19:53:36.746Z,14.35
2018-11-21T19:56:06.629Z,14.00
2018-11-21T19:58:35.924Z,14.15
2018-11-21T20:01:05.241Z,12.65
2018-11-21T20:03:34.577Z,12.98
2018-11-21T20:06:03.863Z,13.18
2018-11-21T20:08:33.180Z,13.98
2018-11-21T20:11:02.509Z,13.88
2018-11-21T20:13:31.812Z,12.53
2018-11-21T20:16:01.096Z,13.03
2018-11-21T20:18:30.367Z,13.43
2018-11-21T20:20:59.664Z,14.60
2018-11-21T20:23:28.962Z,14.13
2018-11-21T20:25:58.206Z,15.08
2018-11-21T20:28:27.457Z,13.80
2018-11-21T20:30:56.739Z,15.25
2018-11-21T20:33:26.027Z,14.28
2018-11-21T20:35:55.336Z,12.90
2018-11-21T20:38:24.632Z,12.80
2018-11-21T20:40:53.889Z,12.75
2018-11-21T20:43:23.121Z,12.93
2018-11-21T20:45:52.381Z,12.23
2018-11-21T20:48:21.622Z,12.93
